createdAt,value
2019-03-20T00:01:51.096Z,96.00
2019-03-20T00:04:21.444Z,96.10
2019-03-20T00:07:10.826Z,96.10
2019-03-20T00:10:00.108Z,96.20
2019-03-20T00:12:49.574Z,96.30
2019-03-20T00:15:38.929Z,96.40
2019-03-20T00:18:28.357Z,96.40
2019-03-20T00:21:17.861Z,96.30
2019-03-20T00:23:48.765Z,96.40
2019-03-20T00:26:38.139Z,96.40
2019-03-20T00:29:27.513Z,96.20
2019-03-20T00:32:16.893Z,96.50
2019-03-20T00:35:06.404Z,96.70
2019-03-20T00:37:55.929Z,96.30
2019-03-20T00:40:45.308Z,96.30
2019-03-20T00:43:34.796Z,96.30
2019-03-20T00:48:48.522Z,96.80
2019-03-20T00:51:37.897Z,97.40
2019-03-20T00:54:08.252Z,97.00
2019-03-20T00:56:57.631Z,97.00
2019-03-20T00:59:47.106Z,97.20
2019-03-20T01:02:36.589Z,97.50
2019-03-20T01:05:25.998Z,97.40
2019-03-20T01:08:15.388Z,97.40
2019-03-20T01:10:45.729Z,97.70
2019-03-20T01:13:35.085Z,97.40
2019-03-20T01:16:24.501Z,97.10
2019-03-20T01:19:13.880Z,96.50
2019-03-20T01:22:03.344Z,96.30
2019-03-20T01:24:45.198Z,96.40
2019-03-20T01:27:27.303Z,96.60
2019-03-20T01:30:09.110Z,96.90
2019-03-20T01:32:51.197Z,97.00
2019-03-20T01:38:16.029Z,97.00
2019-03-20T01:43:37.913Z,97.40
2019-03-20T01:49:02.132Z,97.60
2019-03-20T01:51:44.567Z,97.30
2019-03-20T01:54:26.590Z,97.50
2019-03-20T01:57:08.728Z,98.10
2019-03-20T01:59:50.596Z,98.40
2019-03-20T02:02:32.497Z,98.40
2019-03-20T02:05:14.820Z,98.10
2019-03-20T02:07:56.721Z,98.00
2019-03-20T02:10:38.749Z,98.00
2019-03-20T02:13:20.969Z,98.30
2019-03-20T02:16:02.675Z,98.50
2019-03-20T02:18:45.033Z,98.50
2019-03-20T02:21:15.331Z,98.50
2019-03-20T02:23:45.660Z,98.40
2019-03-20T02:26:15.993Z,98.50
2019-03-20T02:28:46.300Z,98.80
2019-03-20T02:31:35.660Z,98.90
2019-03-20T02:34:25.122Z,98.70
2019-03-20T02:37:14.411Z,98.80
2019-03-20T02:40:04.459Z,98.40
2019-03-20T02:42:53.834Z,98.20
2019-03-20T02:45:43.230Z,98.10
2019-03-20T02:48:32.592Z,98.00
2019-03-20T02:51:21.987Z,98.10
2019-03-20T02:54:11.338Z,98.20
2019-03-20T02:57:00.767Z,98.20
2019-03-20T02:59:50.122Z,98.20
2019-03-20T03:02:32.323Z,98.10
2019-03-20T03:05:14.675Z,98.20
2019-03-20T03:07:56.429Z,98.60
2019-03-20T03:10:38.339Z,98.80
2019-03-20T03:13:20.610Z,98.70
2019-03-20T03:15:50.937Z,98.70
2019-03-20T03:18:40.347Z,98.60
2019-03-20T03:21:29.763Z,98.90
2019-03-20T03:24:19.147Z,98.60
2019-03-20T03:27:27.935Z,98.70
2019-03-20T03:30:17.453Z,98.90
2019-03-20T03:33:27.871Z,99.00
2019-03-20T03:35:58.054Z,98.70
2019-03-20T03:38:47.475Z,98.60
2019-03-20T03:41:36.853Z,98.50
2019-03-20T03:44:26.275Z,98.50
2019-03-20T03:47:15.549Z,98.40
2019-03-20T03:53:13.016Z,98.60
2019-03-20T03:56:02.425Z,98.70
2019-03-20T03:58:44.426Z,98.80
2019-03-20T04:01:26.316Z,98.90
2019-03-20T04:06:50.778Z,99.00
2019-03-20T04:09:32.261Z,99.00
2019-03-20T04:12:13.770Z,98.90
2019-03-20T04:14:55.972Z,99.20
2019-03-20T04:17:37.866Z,99.40
2019-03-20T04:20:19.660Z,99.20
2019-03-20T04:23:01.594Z,99.30
2019-03-20T04:25:43.188Z,99.40
2019-03-20T04:28:25.556Z,99.40
2019-03-20T04:31:07.183Z,99.50
2019-03-20T04:33:49.239Z,99.80
2019-03-20T04:36:31.415Z,99.90
2019-03-20T04:39:13.214Z,99.70
2019-03-20T04:41:54.865Z,99.90
2019-03-20T04:44:37.074Z,99.90
2019-03-20T04:47:18.918Z,99.90
2019-03-20T04:50:01.453Z,99.90
2019-03-20T04:55:26.183Z,99.90
2019-03-20T04:58:08.208Z,99.90
2019-03-20T05:00:49.981Z,99.90
2019-03-20T05:03:32.509Z,99.90
2019-03-20T05:06:14.565Z,99.90
2019-03-20T05:08:56.997Z,99.90
2019-03-20T05:11:38.619Z,99.90
2019-03-20T05:14:20.245Z,99.90
2019-03-20T05:17:02.488Z,99.90
2019-03-20T05:19:44.222Z,99.90
2019-03-20T05:22:26.089Z,99.90
2019-03-20T05:25:08.039Z,99.90
2019-03-20T05:27:50.106Z,99.90
2019-03-20T05:33:28.870Z,99.90
2019-03-20T05:36:18.261Z,99.90
2019-03-20T05:39:08.070Z,99.90
2019-03-20T05:41:50.490Z,99.90
2019-03-20T05:44:32.547Z,99.90
2019-03-20T05:47:14.657Z,99.90
2019-03-20T05:49:56.881Z,99.90
2019-03-20T05:52:38.827Z,99.90
2019-03-20T05:55:20.376Z,99.90
2019-03-20T05:58:02.271Z,99.90
2019-03-20T06:03:26.456Z,99.90
2019-03-20T06:06:08.474Z,99.90
2019-03-20T06:12:23.203Z,99.90
2019-03-20T06:15:04.941Z,99.90
2019-03-20T06:17:47.218Z,99.50
2019-03-20T06:23:11.872Z,99.30
2019-03-20T06:25:42.242Z,99.30
2019-03-20T06:28:31.611Z,99.20
2019-03-20T06:31:21.026Z,99.70
2019-03-20T06:34:10.326Z,99.90
2019-03-20T06:36:59.747Z,99.80
2019-03-20T06:39:49.168Z,99.50
2019-03-20T06:42:31.199Z,99.50
2019-03-20T06:45:12.849Z,99.60
2019-03-20T06:47:54.655Z,99.50
2019-03-20T06:53:18.817Z,99.90
2019-03-20T06:56:00.799Z,99.90
2019-03-20T06:58:31.118Z,98.10
2019-03-20T07:05:18.679Z,98.90
2019-03-20T07:08:07.986Z,99.30
2019-03-20T07:11:17.559Z,99.70
2019-03-20T07:14:07.015Z,99.10
2019-03-20T07:16:56.399Z,99.50
2019-03-20T07:19:45.783Z,99.10
2019-03-20T07:22:35.184Z,99.30
2019-03-20T07:25:24.623Z,98.90
2019-03-20T07:28:14.075Z,99.00
2019-03-20T07:31:14.286Z,98.70
2019-03-20T07:33:54.520Z,98.70
2019-03-20T07:36:25.283Z,99.10
2019-03-20T07:39:34.164Z,98.80
2019-03-20T07:42:35.526Z,98.60
2019-03-20T07:45:17.722Z,98.50
2019-03-20T07:48:00.490Z,98.40
2019-03-20T07:50:42.081Z,98.50
2019-03-20T07:53:24.228Z,98.50
2019-03-20T07:58:48.287Z,98.30
2019-03-20T08:04:12.659Z,98.10
2019-03-20T08:06:42.845Z,98.20
2019-03-20T08:09:32.614Z,98.10
2019-03-20T08:12:03.004Z,97.90
2019-03-20T08:14:52.376Z,97.90
2019-03-20T08:17:41.752Z,97.90
2019-03-20T08:20:23.482Z,98.00
2019-03-20T08:23:05.955Z,98.00
2019-03-20T08:25:48.067Z,98.10
2019-03-20T08:28:29.730Z,97.80
2019-03-20T08:31:11.886Z,97.80
2019-03-20T08:33:42.272Z,97.80
2019-03-20T08:36:12.586Z,97.60
2019-03-20T08:39:01.955Z,97.50
2019-03-20T08:41:51.356Z,97.40
2019-03-20T08:44:21.734Z,97.30
2019-03-20T08:47:11.164Z,96.80
2019-03-20T08:50:00.629Z,96.50
2019-03-20T08:52:49.991Z,96.10
2019-03-20T08:55:20.468Z,95.60
2019-03-20T08:58:09.864Z,94.80
2019-03-20T09:00:59.336Z,93.90
2019-03-20T09:03:48.777Z,93.70
2019-03-20T09:06:19.223Z,93.50
2019-03-20T09:09:08.636Z,93.00
2019-03-20T09:11:58.038Z,92.50
2019-03-20T09:14:47.447Z,91.90
2019-03-20T09:17:36.902Z,91.60
2019-03-20T09:20:26.334Z,96.40
2019-03-20T09:23:15.738Z,91.70
2019-03-20T09:29:04.541Z,90.00
2019-03-20T09:31:53.955Z,91.40
2019-03-20T09:34:43.381Z,84.90
2019-03-20T09:37:52.829Z,85.80
2019-03-20T09:40:43.670Z,85.10
2019-03-20T09:43:52.508Z,86.10
2019-03-20T09:46:41.941Z,84.00
2019-03-20T09:49:31.356Z,84.00
2019-03-20T09:52:20.730Z,82.50
2019-03-20T09:55:10.274Z,81.90
2019-03-20T09:57:59.666Z,81.80
2019-03-20T10:00:49.120Z,83.20
2019-03-20T10:03:38.613Z,80.30
2019-03-20T10:06:30.170Z,80.50
2019-03-20T10:09:38.627Z,81.40
2019-03-20T10:12:28.102Z,79.40
2019-03-20T10:15:18.018Z,79.60
2019-03-20T10:21:15.839Z,81.40
2019-03-20T10:24:05.198Z,79.60
2019-03-20T10:26:54.584Z,76.60
2019-03-20T10:29:24.923Z,76.30
2019-03-20T10:32:14.489Z,77.40
2019-03-20T10:35:04.009Z,77.70
2019-03-20T10:37:34.299Z,83.10
2019-03-20T10:40:25.172Z,79.20
2019-03-20T10:43:14.592Z,76.60
2019-03-20T10:45:44.891Z,75.60
2019-03-20T10:48:15.218Z,77.80
2019-03-20T10:51:04.575Z,75.30
2019-03-20T10:53:34.790Z,77.60
2019-03-20T10:56:24.188Z,74.40
2019-03-20T10:59:13.665Z,74.80
2019-03-20T11:01:56.067Z,72.50
2019-03-20T11:04:38.063Z,77.90
2019-03-20T11:07:20.043Z,71.00
2019-03-20T11:10:02.447Z,68.50
2019-03-20T11:15:28.567Z,74.10
2019-03-20T11:17:58.806Z,74.90
2019-03-20T11:20:48.300Z,68.50
2019-03-20T11:23:18.734Z,67.70
2019-03-20T11:25:49.928Z,78.90
2019-03-20T11:28:20.287Z,68.00
2019-03-20T11:30:50.530Z,68.90
2019-03-20T11:33:39.886Z,67.20
2019-03-20T11:36:10.202Z,71.00
2019-03-20T11:38:59.592Z,66.00
2019-03-20T11:41:49.066Z,62.90
2019-03-20T11:44:38.457Z,62.20
2019-03-20T11:47:09.681Z,62.40
2019-03-20T11:49:59.073Z,62.20
2019-03-20T11:52:48.535Z,61.60
2019-03-20T11:55:37.935Z,61.00
2019-03-20T11:58:27.333Z,61.50
2019-03-20T12:01:09.800Z,63.60
2019-03-20T12:03:51.870Z,63.00
2019-03-20T12:06:33.734Z,68.00
2019-03-20T12:11:58.662Z,62.50
2019-03-20T12:14:40.439Z,62.90
2019-03-20T12:17:22.623Z,62.20
2019-03-20T12:20:04.459Z,61.60
2019-03-20T12:22:46.383Z,63.00
2019-03-20T12:25:28.339Z,63.70
2019-03-20T12:28:10.226Z,62.00
2019-03-20T12:30:52.229Z,62.50
2019-03-20T12:33:34.454Z,61.20
2019-03-20T12:36:16.376Z,63.10
2019-03-20T12:38:58.472Z,60.00
2019-03-20T12:41:40.091Z,63.60
2019-03-20T12:44:21.811Z,62.00
2019-03-20T12:47:03.540Z,61.20
2019-03-20T12:49:45.349Z,60.40
2019-03-20T12:55:09.786Z,62.30
2019-03-20T12:57:52.091Z,61.80
2019-03-20T13:00:33.890Z,60.80
2019-03-20T13:03:15.599Z,60.10
2019-03-20T13:05:57.910Z,60.00
2019-03-20T13:08:39.745Z,57.60
2019-03-20T13:11:22.082Z,57.50
2019-03-20T13:14:04.220Z,57.20
2019-03-20T13:16:34.610Z,57.30
2019-03-20T13:19:24.041Z,56.80
2019-03-20T13:22:13.397Z,55.50
2019-03-20T13:25:02.795Z,57.40
2019-03-20T13:27:52.207Z,56.90
2019-03-20T13:30:43.076Z,57.30
2019-03-20T13:33:32.447Z,57.40
2019-03-20T13:36:21.839Z,58.10
2019-03-20T13:39:11.192Z,57.90
2019-03-20T13:41:41.449Z,56.30
2019-03-20T13:44:30.837Z,58.10
2019-03-20T13:47:20.173Z,57.60
2019-03-20T13:50:10.334Z,57.00
2019-03-20T13:52:59.709Z,57.60
2019-03-20T13:55:49.094Z,57.30
2019-03-20T13:58:19.456Z,57.00
2019-03-20T14:01:08.867Z,57.30
2019-03-20T14:03:58.316Z,56.70
2019-03-20T14:06:47.764Z,56.50
2019-03-20T14:09:37.168Z,55.40
2019-03-20T14:12:26.575Z,56.20
2019-03-20T14:15:28.116Z,57.00
2019-03-20T14:18:10.393Z,58.00
2019-03-20T14:20:52.674Z,56.20
2019-03-20T14:23:34.737Z,56.30
2019-03-20T14:26:16.821Z,56.30
2019-03-20T14:28:58.794Z,56.00
2019-03-20T14:31:29.308Z,56.10
2019-03-20T14:34:18.855Z,57.50
2019-03-20T14:36:49.351Z,55.50
2019-03-20T14:39:19.649Z,57.40
2019-03-20T14:42:09.062Z,54.00
2019-03-20T14:44:58.471Z,53.30
2019-03-20T14:47:47.842Z,55.00
2019-03-20T14:50:37.238Z,53.10
2019-03-20T14:53:26.609Z,55.40
2019-03-20T14:56:18.186Z,53.80
2019-03-20T14:59:26.565Z,54.00
2019-03-20T15:02:15.965Z,54.20
2019-03-20T15:05:05.614Z,54.80
2019-03-20T15:07:55.016Z,54.90
2019-03-20T15:10:46.127Z,55.10
2019-03-20T15:13:54.862Z,53.60
2019-03-20T15:16:36.906Z,55.70
2019-03-20T15:22:15.788Z,56.60
2019-03-20T15:25:05.447Z,57.00
2019-03-20T15:27:54.950Z,56.40
2019-03-20T15:30:44.392Z,59.30
2019-03-20T15:33:33.820Z,58.30
2019-03-20T15:36:23.326Z,60.60
2019-03-20T15:39:12.809Z,59.30
2019-03-20T15:42:02.188Z,58.80
2019-03-20T15:44:51.596Z,58.10
2019-03-20T15:47:40.920Z,57.50
2019-03-20T15:50:23.463Z,57.70
2019-03-20T15:53:05.785Z,57.70
2019-03-20T15:55:49.590Z,57.60
2019-03-20T15:58:31.734Z,58.20
2019-03-20T16:01:13.411Z,58.90
2019-03-20T16:03:55.401Z,59.60
2019-03-20T16:06:25.851Z,59.70
2019-03-20T16:09:15.144Z,59.30
2019-03-20T16:12:04.542Z,58.90
2019-03-20T16:14:53.911Z,58.60
2019-03-20T16:17:43.314Z,58.30
2019-03-20T16:20:32.729Z,58.50
2019-03-20T16:23:22.127Z,58.90
2019-03-20T16:26:11.016Z,59.30
2019-03-20T16:29:00.558Z,59.60
2019-03-20T16:31:49.929Z,59.60
2019-03-20T16:34:39.289Z,59.40
2019-03-20T16:37:28.722Z,59.80
2019-03-20T16:40:18.688Z,59.90
2019-03-20T16:43:08.131Z,59.80
2019-03-20T16:45:57.549Z,59.30
2019-03-20T16:48:46.976Z,59.90
2019-03-20T16:51:36.387Z,60.20
2019-03-20T16:54:25.823Z,60.60
2019-03-20T16:56:56.182Z,60.80
2019-03-20T16:59:45.562Z,60.70
2019-03-20T17:02:34.992Z,60.70
2019-03-20T17:05:24.744Z,61.10
2019-03-20T17:08:14.133Z,61.30
2019-03-20T17:11:03.555Z,61.80
2019-03-20T17:13:52.975Z,61.60
2019-03-20T17:16:42.732Z,61.80
2019-03-20T17:19:52.809Z,62.40
2019-03-20T17:22:42.293Z,62.60
2019-03-20T17:25:31.753Z,63.10
2019-03-20T17:28:21.158Z,63.50
2019-03-20T17:31:10.625Z,63.50
2019-03-20T17:34:00.047Z,64.00
2019-03-20T17:39:38.201Z,65.10
2019-03-20T17:42:27.551Z,65.80
2019-03-20T17:45:17.472Z,65.60
2019-03-20T17:48:07.005Z,66.30
2019-03-20T17:50:37.253Z,66.20
2019-03-20T17:53:07.684Z,66.80
2019-03-20T17:55:57.062Z,67.80
2019-03-20T17:58:46.412Z,67.50
2019-03-20T18:01:35.792Z,67.00
2019-03-20T18:04:25.197Z,67.20
2019-03-20T18:07:14.561Z,66.90
2019-03-20T18:10:04.238Z,67.20
2019-03-20T18:12:53.608Z,67.60
2019-03-20T18:15:43.029Z,67.90
2019-03-20T18:18:34.091Z,69.30
2019-03-20T18:21:23.568Z,70.30
2019-03-20T18:23:53.959Z,69.80
2019-03-20T18:26:24.316Z,70.10
2019-03-20T18:29:13.732Z,71.10
2019-03-20T18:32:03.115Z,72.10
2019-03-20T18:34:33.508Z,73.00
2019-03-20T18:37:03.851Z,72.90
2019-03-20T18:39:34.243Z,73.50
2019-03-20T18:42:24.533Z,73.80
2019-03-20T18:45:14.536Z,74.10
2019-03-20T18:48:04.580Z,74.10
2019-03-20T18:50:46.905Z,74.70
2019-03-20T18:53:29.408Z,74.00
2019-03-20T18:56:11.424Z,74.60
2019-03-20T18:58:53.755Z,75.60
2019-03-20T19:01:36.178Z,75.60
2019-03-20T19:04:18.125Z,75.90
2019-03-20T19:07:00.325Z,76.40
2019-03-20T19:09:42.139Z,77.10
2019-03-20T19:12:12.588Z,77.60
2019-03-20T19:14:43.080Z,78.30
2019-03-20T19:17:32.491Z,78.60
2019-03-20T19:20:22.156Z,79.60
2019-03-20T19:23:11.542Z,78.70
2019-03-20T19:26:20.480Z,79.60
2019-03-20T19:29:29.366Z,79.80
2019-03-20T19:32:18.875Z,80.60
2019-03-20T19:35:08.419Z,80.50
2019-03-20T19:37:57.920Z,80.70
2019-03-20T19:40:47.398Z,81.10
2019-03-20T19:43:36.860Z,81.20
2019-03-20T19:46:26.332Z,81.80
2019-03-20T19:48:56.739Z,81.80
2019-03-20T19:51:46.151Z,82.10
2019-03-20T19:54:36.243Z,82.50
2019-03-20T19:57:25.745Z,81.00
2019-03-20T19:59:56.131Z,80.30
2019-03-20T20:02:45.522Z,79.70
2019-03-20T20:05:16.426Z,80.20
2019-03-20T20:08:06.184Z,79.40
2019-03-20T20:10:36.938Z,78.90
2019-03-20T20:13:26.346Z,78.70
2019-03-20T20:16:15.814Z,78.00
2019-03-20T20:18:46.221Z,78.30
2019-03-20T20:21:35.565Z,78.80
2019-03-20T20:24:24.991Z,78.70
2019-03-20T20:27:14.385Z,79.10
2019-03-20T20:30:04.143Z,79.40
2019-03-20T20:32:53.583Z,79.50
2019-03-20T20:35:42.960Z,79.90
2019-03-20T20:38:32.503Z,79.90
2019-03-20T20:41:22.010Z,79.60
2019-03-20T20:44:11.441Z,79.10
2019-03-20T20:46:41.806Z,79.40
2019-03-20T20:49:23.454Z,80.60
2019-03-20T20:52:05.801Z,80.60
2019-03-20T20:54:48.037Z,81.20
2019-03-20T20:57:18.423Z,81.60
2019-03-20T21:00:10.260Z,81.70
2019-03-20T21:02:59.723Z,82.20
2019-03-20T21:05:30.065Z,82.00
2019-03-20T21:08:19.496Z,82.00
2019-03-20T21:11:08.886Z,81.50
2019-03-20T21:13:39.242Z,81.70
2019-03-20T21:16:29.038Z,81.20
2019-03-20T21:19:37.827Z,82.10
2019-03-20T21:22:47.185Z,82.10
2019-03-20T21:25:37.782Z,82.00
2019-03-20T21:28:46.303Z,82.50
2019-03-20T21:31:38.081Z,82.70
2019-03-20T21:34:35.979Z,83.20
2019-03-20T21:37:47.388Z,82.90
2019-03-20T21:40:19.870Z,81.80
2019-03-20T21:43:28.362Z,82.70
2019-03-20T21:46:22.893Z,83.60
2019-03-20T21:49:13.907Z,85.30
2019-03-20T21:52:05.710Z,85.70
2019-03-20T21:55:14.461Z,86.00
2019-03-20T21:58:22.975Z,86.60
2019-03-20T22:01:31.444Z,87.70
2019-03-20T22:07:33.380Z,89.60
2019-03-20T22:10:30.661Z,90.40
2019-03-20T22:13:58.587Z,90.60
2019-03-20T22:17:26.559Z,90.80
2019-03-20T22:20:35.053Z,91.50
2019-03-20T22:23:46.647Z,91.40
2019-03-20T22:26:55.823Z,91.90
2019-03-20T22:29:45.606Z,92.50
2019-03-20T22:32:54.188Z,92.50
2019-03-20T22:35:48.510Z,92.80
2019-03-20T22:38:56.993Z,93.00
2019-03-20T22:42:05.436Z,92.80
2019-03-20T22:45:13.922Z,92.20
2019-03-20T22:48:22.436Z,92.30
2019-03-20T22:51:04.562Z,92.40
2019-03-20T22:53:46.819Z,92.60
2019-03-20T22:56:28.857Z,92.60
2019-03-20T22:59:10.975Z,92.20
2019-03-20T23:01:53.392Z,92.40
2019-03-20T23:04:35.114Z,92.00
2019-03-20T23:07:19.305Z,91.80
2019-03-20T23:13:41.603Z,92.00
2019-03-20T23:16:18.648Z,92.40
2019-03-20T23:19:03.593Z,92.30
2019-03-20T23:21:48.303Z,92.70
2019-03-20T23:27:12.717Z,93.30
2019-03-20T23:32:38.138Z,94.00
2019-03-20T23:35:19.824Z,94.30
2019-03-20T23:38:02.509Z,94.60
2019-03-20T23:43:27.147Z,94.10
2019-03-20T23:46:09.386Z,93.30
2019-03-20T23:48:51.394Z,93.20
2019-03-20T23:54:16.067Z,93.50
2019-03-20T23:59:40.530Z,94.20
